Time;durP1;ratioP1;P1;durP2;ratioP2;P2;SDS_P1;SDS_P2;PMS_P1;PMS_P2;Temp;Humidity;BMP_temperature;BMP_pressure;BME280_temperature;BME280_humidity;BME280_pressure;Samples;Min_cycle;Max_cycle;Signal;HPM_P1;HPM_P2
2023/06/09 00:01:19;;;;;;;1.92;1.40;;;25.40;64.80;;;;;;5073427;28;20027;-77
2023/06/09 00:03:47;;;;;;;2.60;1.60;;;25.50;64.80;;;;;;5074531;28;20052;-77
2023/06/09 00:06:15;;;;;;;1.75;1.33;;;25.60;64.90;;;;;;5074540;28;20032;-76
2023/06/09 00:08:42;;;;;;;2.03;1.63;;;25.40;64.70;;;;;;5075054;28;20047;-77
2023/06/09 00:11:09;;;;;;;2.78;1.60;;;25.30;45.10;;;;;;5074770;28;20021;-77
2023/06/09 00:13:35;;;;;;;2.45;1.60;;;25.50;65.00;;;;;;5074727;28;20021;-77
2023/06/09 00:16:01;;;;;;;2.97;1.48;;;25.10;64.60;;;;;;5074804;28;20028;-77
2023/06/09 00:18:27;;;;;;;3.15;1.60;;;24.90;65.00;;;;;;5074653;28;20033;-77
2023/06/09 00:20:53;;;;;;;2.08;1.40;;;25.30;45.20;;;;;;5074679;28;20085;-77
2023/06/09 00:23:19;;;;;;;2.65;1.65;;;25.00;64.30;;;;;;5074238;28;20115;-76
2023/06/09 00:25:45;;;;;;;2.80;1.70;;;25.40;64.60;;;;;;5074655;28;20069;-77
2023/06/09 00:28:11;;;;;;;3.50;1.40;;;25.10;64.60;;;;;;5074529;28;20391;-76
2023/06/09 00:30:37;;;;;;;1.73;1.50;;;24.90;64.40;;;;;;5074468;28;20021;-77
2023/06/09 00:33:03;;;;;;;1.55;1.38;;;25.10;64.40;;;;;;5074307;28;20021;-77
2023/06/09 00:35:30;;;;;;;2.92;1.80;;;25.30;64.90;;;;;;5074464;28;20027;-77
2023/06/09 00:37:56;;;;;;;2.03;1.33;;;25.30;65.00;;;;;;5074021;28;20012;-76
2023/06/09 00:40:22;;;;;;;1.95;1.60;;;25.00;64.60;;;;;;5074280;28;20095;-77
2023/06/09 00:42:48;;;;;;;1.67;1.40;;;25.40;64.90;;;;;;5074542;28;20483;-77
2023/06/09 00:45:14;;;;;;;1.75;1.27;;;25.10;45.00;;;;;;5074324;28;20471;-77
2023/06/09 00:47:40;;;;;;;2.28;1.60;;;25.10;45.40;;;;;;5056546;28;20368;-77
2023/06/09 00:50:07;;;;;;;1.65;1.23;;;25.00;65.40;;;;;;5074035;28;20023;-76
2023/06/09 00:52:33;;;;;;;2.55;1.60;;;25.10;64.80;;;;;;5073933;28;20013;-77
2023/06/09 00:55:01;;;;;;;1.42;1.20;;;25.20;64.90;;;;;;5073820;28;20027;-76
2023/06/09 00:57:29;;;;;;;1.85;1.27;;;24.90;64.80;;;;;;5074051;28;20046;-77
2023/06/09 00:59:56;;;;;;;2.20;1.30;;;25.20;59.10;;;;;;5073662;28;20050;-77
2023/06/09 01:02:23;;;;;;;1.58;1.10;;;24.90;64.60;;;;;;5073578;28;20079;-76
2023/06/09 01:04:49;;;;;;;1.55;1.38;;;25.00;65.10;;;;;;5073953;28;20095;-76
2023/06/09 01:07:46;;;;;;;2.33;1.58;;;24.90;45.00;;;;;;5073790;28;20024;-76
2023/06/09 01:10:34;;;;;;;2.70;1.35;;;25.10;64.90;;;;;;5073435;28;20033;-77
2023/06/09 01:13:24;;;;;;;2.55;1.20;;;25.20;65.30;;;;;;5073161;28;20017;-77
2023/06/09 01:15:59;;;;;;;1.52;1.27;;;24.70;45.00;;;;;;5073610;28;20028;-77
2023/06/09 01:18:30;;;;;;;2.03;1.50;;;24.80;65.10;;;;;;5073770;28;20032;-77
2023/06/09 01:21:32;;;;;;;1.70;1.23;;;24.80;45.10;;;;;;5073696;28;20020;-77
2023/06/09 01:24:19;;;;;;;2.42;1.50;;;25.10;46.40;;;;;;5073544;28;20016;-77
2023/06/09 01:26:50;;;;;;;2.00;1.40;;;25.10;65.20;;;;;;5073264;28;20024;-77
2023/06/09 01:29:19;;;;;;;1.48;1.20;;;24.60;65.10;;;;;;5039630;28;20055;-76
2023/06/09 01:31:46;;;;;;;1.88;1.38;;;24.70;65.10;;;;;;5038898;28;20024;-77
2023/06/09 01:34:13;;;;;;;2.00;1.50;;;24.70;64.80;;;;;;5039116;28;20074;-76
2023/06/09 01:36:41;;;;;;;1.77;1.52;;;24.70;45.10;;;;;;5038900;28;20020;-76
2023/06/09 01:39:08;;;;;;;1.35;1.25;;;24.70;45.30;;;;;;5038747;28;20040;-77
2023/06/09 01:41:35;;;;;;;2.97;1.63;;;24.80;65.10;;;;;;5038516;28;20029;-77
2023/06/09 01:44:01;;;;;;;1.95;1.20;;;24.60;65.00;;;;;;5039017;28;20394;-76
2023/06/09 01:46:28;;;;;;;2.33;1.38;;;24.50;64.90;;;;;;5038636;28;20035;-76
2023/06/09 01:49:19;;;;;;;2.15;1.17;;;24.60;65.10;;;;;;5038720;28;20033;-77
2023/06/09 01:51:56;;;;;;;1.67;1.40;;;24.80;65.40;;;;;;5072779;28;20025;-77
2023/06/09 01:54:35;;;;;;;2.97;1.45;;;24.90;65.10;;;;;;5072885;28;20021;-77
2023/06/09 01:57:42;;;;;;;1.50;1.20;;;24.60;65.00;;;;;;5072808;28;20021;-77
2023/06/09 02:00:09;;;;;;;1.83;1.25;;;24.60;45.10;;;;;;5071158;28;20053;-77
2023/06/09 02:02:38;;;;;;;1.83;1.30;;;24.60;45.30;;;;;;5072095;28;20372;-77
2023/06/09 02:05:06;;;;;;;2.22;1.30;;;24.50;65.40;;;;;;5072770;28;20374;-77
2023/06/09 02:07:33;;;;;;;2.63;1.52;;;24.60;45.40;;;;;;5072633;28;20090;-77
2023/06/09 02:09:59;;;;;;;1.60;1.30;;;24.30;65.10;;;;;;5072274;28;20021;-77
2023/06/09 02:12:34;;;;;;;2.70;1.40;;;24.50;45.20;;;;;;5072467;28;20025;-76
2023/06/09 02:15:02;;;;;;;1.98;1.40;;;24.50;44.40;;;;;;5072281;28;20510;-76
2023/06/09 02:17:29;;;;;;;2.05;1.45;;;24.50;45.00;;;;;;5072593;28;20024;-76
2023/06/09 02:19:56;;;;;;;2.00;1.10;;;24.50;65.10;;;;;;5072335;28;20048;-76
2023/06/09 02:22:22;;;;;;;3.40;1.42;;;24.50;45.40;;;;;;5072125;28;20051;-77
2023/06/09 02:24:48;;;;;;;1.70;1.30;;;24.30;65.20;;;;;;5071968;28;20025;-77
2023/06/09 02:27:14;;;;;;;1.98;1.33;;;24.00;64.50;;;;;;5072265;28;20151;-77
2023/06/09 02:29:40;;;;;;;2.25;1.48;;;24.50;65.10;;;;;;5072504;28;20021;-77
2023/06/09 02:32:06;;;;;;;1.92;1.33;;;24.40;64.70;;;;;;5072471;28;20020;-76
2023/06/09 02:34:32;;;;;;;1.80;1.30;;;24.20;64.80;;;;;;5072171;28;20036;-77
2023/06/09 02:36:59;;;;;;;1.85;1.58;;;24.10;64.80;;;;;;5072481;28;20025;-77
2023/06/09 02:39:25;;;;;;;3.50;1.65;;;24.30;45.40;;;;;;5071815;28;20064;-77
2023/06/09 02:41:51;;;;;;;1.67;1.05;;;24.40;45.30;;;;;;5072245;28;20040;-77
2023/06/09 02:44:17;;;;;;;1.73;1.30;;;24.50;65.20;;;;;;5071993;28;20032;-77
2023/06/09 02:46:44;;;;;;;2.83;1.27;;;24.50;65.10;;;;;;5071980;28;20032;-77
2023/06/09 02:49:10;;;;;;;1.80;1.30;;;24.30;65.10;;;;;;5071999;28;20082;-77
2023/06/09 02:51:37;;;;;;;1.38;1.27;;;24.40;65.40;;;;;;5071813;28;20024;-77
2023/06/09 02:54:03;;;;;;;2.13;1.33;;;;;;;;;;5072215;28;20035;-77
2023/06/09 02:56:29;;;;;;;1.10;0.90;;;24.40;65.30;;;;;;5071628;28;20054;-76
2023/06/09 02:58:57;;;;;;;2.20;1.40;;;24.20;64.90;;;;;;5071588;28;20068;-77
2023/06/09 03:01:23;;;;;;;1.30;1.10;;;24.10;65.20;;;;;;5072086;28;20044;-76
2023/06/09 03:03:49;;;;;;;2.20;1.55;;;24.20;45.50;;;;;;5071654;28;20514;-76
2023/06/09 03:06:17;;;;;;;1.33;1.10;;;24.50;65.20;;;;;;5071946;28;20032;-76
2023/06/09 03:08:43;;;;;;;1.60;1.13;;;24.20;45.50;;;;;;5071813;28;20522;-77
2023/06/09 03:11:10;;;;;;;1.95;1.30;;;24.20;45.20;;;;;;5072044;28;20013;-77
2023/06/09 03:13:36;;;;;;;2.88;1.30;;;24.40;65.00;;;;;;5072156;28;20029;-77
2023/06/09 03:16:03;;;;;;;3.00;1.17;;;24.10;45.20;;;;;;5071771;28;20054;-77
2023/06/09 03:18:29;;;;;;;1.70;1.38;;;24.20;64.50;;;;;;5071773;28;20025;-77
2023/06/09 03:21:00;;;;;;;1.33;1.10;;;24.10;45.10;;;;;;5071930;28;20644;-77
2023/06/09 03:23:26;;;;;;;1.17;1.08;;;24.10;64.80;;;;;;5071972;28;20394;-77
2023/06/09 03:25:52;;;;;;;1.83;1.40;;;24.00;64.50;;;;;;5071937;28;20024;-77
2023/06/09 03:28:18;;;;;;;2.40;1.20;;;23.90;64.70;;;;;;5071673;28;20044;-77
2023/06/09 03:30:45;;;;;;;1.55;1.45;;;24.40;64.70;;;;;;5071360;28;20031;-77
2023/06/09 03:33:11;;;;;;;1.70;1.00;;;24.20;64.50;;;;;;5053849;28;20021;-77
2023/06/09 03:35:37;;;;;;;2.85;1.40;;;23.80;64.40;;;;;;5074212;28;20052;-77
2023/06/09 03:38:02;;;;;;;1.63;1.20;;;24.00;45.30;;;;;;5075209;28;20067;-77
2023/06/09 03:40:28;;;;;;;1.77;1.30;;;24.00;45.50;;;;;;5075186;28;20107;-77
2023/06/09 03:42:54;;;;;;;1.40;1.05;;;24.00;45.40;;;;;;5075345;28;20482;-77
2023/06/09 03:45:19;;;;;;;2.25;1.05;;;24.00;45.30;;;;;;5075065;28;20538;-77
2023/06/09 03:47:45;;;;;;;2.50;1.20;;;24.10;64.60;;;;;;5057023;28;20024;-77
2023/06/09 03:50:11;;;;;;;1.60;1.10;;;24.00;45.40;;;;;;5075036;28;20016;-77
2023/06/09 03:52:36;;;;;;;2.13;1.38;;;24.10;64.90;;;;;;5057000;28;20482;-77
2023/06/09 03:55:02;;;;;;;2.00;1.50;;;23.90;45.40;;;;;;5074905;28;20058;-77
2023/06/09 03:57:28;;;;;;;2.95;1.20;;;24.20;64.90;;;;;;5075187;28;20025;-77
2023/06/09 03:59:54;;;;;;;1.30;1.20;;;23.90;45.40;;;;;;5074819;28;20029;-77
2023/06/09 04:02:20;;;;;;;2.50;1.25;;;23.90;45.40;;;;;;5074607;28;20047;-77
2023/06/09 04:04:46;;;;;;;1.80;1.33;;;23.90;45.30;;;;;;5074989;28;20024;-77
2023/06/09 04:07:14;;;;;;;3.20;1.30;;;23.80;64.50;;;;;;5074584;28;20024;-77
2023/06/09 04:09:41;;;;;;;3.08;1.52;;;23.90;65.30;;;;;;5075084;28;20028;-77
2023/06/09 04:12:08;;;;;;;2.90;1.13;;;24.10;64.90;;;;;;5074442;28;20032;-77
2023/06/09 04:14:34;;;;;;;2.45;1.52;;;23.80;45.20;;;;;;5074607;28;20025;-77
2023/06/09 04:17:00;;;;;;;2.03;1.25;;;24.00;64.90;;;;;;5074656;28;20021;-77
2023/06/09 04:19:26;;;;;;;1.42;1.15;;;23.80;45.60;;;;;;5074723;28;20111;-77
2023/06/09 04:21:52;;;;;;;2.33;1.27;;;24.00;64.50;;;;;;5074832;28;20044;-77
2023/06/09 04:24:18;;;;;;;1.73;0.95;;;23.80;45.40;;;;;;5074269;28;20024;-77
2023/06/09 04:26:47;;;;;;;1.73;1.25;;;23.80;64.90;;;;;;5074478;28;20044;-77
2023/06/09 04:29:15;;;;;;;1.55;1.10;;;23.70;45.60;;;;;;5074487;28;20032;-77
2023/06/09 04:31:42;;;;;;;2.05;1.30;;;23.80;45.10;;;;;;5074506;28;20028;-77
2023/06/09 04:34:12;;;;;;;2.95;1.30;;;24.20;65.10;;;;;;5074584;28;20032;-77
2023/06/09 04:36:39;;;;;;;3.65;1.50;;;23.40;64.70;;;;;;5074445;28;20025;-77
2023/06/09 04:39:09;;;;;;;2.63;1.25;;;23.90;65.20;;;;;;5074255;28;20068;-77
2023/06/09 04:41:37;;;;;;;2.72;1.33;;;23.70;45.60;;;;;;5074333;28;20031;-77
2023/06/09 04:44:05;;;;;;;2.10;1.23;;;23.60;64.50;;;;;;5074435;28;20069;-77
2023/06/09 04:46:37;;;;;;;2.35;1.40;;;23.90;65.00;;;;;;5073497;28;20059;-77
2023/06/09 04:49:09;;;;;;;2.38;1.33;;;23.70;64.60;;;;;;5073908;28;20025;-77
2023/06/09 04:52:02;;;;;;;2.45;1.40;;;23.70;65.00;;;;;;5074231;28;20024;-77
2023/06/09 04:54:28;;;;;;;2.28;1.50;;;23.50;64.90;;;;;;5070901;28;20108;-77
2023/06/09 04:56:57;;;;;;;1.80;1.30;;;23.60;64.80;;;;;;5074072;28;20036;-77
2023/06/09 04:59:24;;;;;;;1.83;1.30;;;23.60;45.70;;;;;;5073766;28;20044;-77
2023/06/09 05:01:51;;;;;;;1.85;1.27;;;23.60;45.50;;;;;;5073310;28;20027;-77
2023/06/09 05:04:17;;;;;;;2.10;1.42;;;23.70;65.10;;;;;;5073771;28;20028;-77
2023/06/09 05:06:43;;;;;;;1.80;1.30;;;23.60;45.60;;;;;;5073845;28;20573;-77
2023/06/09 05:09:09;;;;;;;2.05;1.30;;;23.80;65.00;;;;;;5073239;28;20028;-77
2023/06/09 05:11:36;;;;;;;2.55;1.58;;;23.60;45.70;;;;;;5073360;28;20498;-77
2023/06/09 05:14:04;;;;;;;2.22;1.50;;;23.70;64.50;;;;;;5073422;28;20012;-77
2023/06/09 05:16:31;;;;;;;2.97;1.50;;;23.60;45.60;;;;;;5073538;28;20434;-77
2023/06/09 05:18:56;;;;;;;1.25;1.08;;;23.80;64.70;;;;;;5055177;28;20032;-77
2023/06/09 05:21:26;;;;;;;1.60;1.20;;;23.60;45.60;;;;;;5073070;28;20618;-77
2023/06/09 05:23:52;;;;;;;1.90;1.20;;;23.50;46.00;;;;;;5073268;28;20123;-77
2023/06/09 05:26:18;;;;;;;1.52;1.15;;;23.50;45.50;;;;;;5072909;28;20016;-78
2023/06/09 05:28:44;;;;;;;1.95;1.33;;;23.50;65.00;;;;;;5073163;28;20474;-77
2023/06/09 05:31:11;;;;;;;1.63;1.33;;;23.60;65.00;;;;;;5072895;28;20024;-77
2023/06/09 05:33:37;;;;;;;2.33;1.40;;;23.40;45.60;;;;;;5073277;28;20020;-77
2023/06/09 05:36:03;;;;;;;1.85;1.40;;;23.40;45.40;;;;;;5072950;28;20035;-77
2023/06/09 05:38:30;;;;;;;1.92;1.20;;;;;;;;;;5072627;28;20051;-77
2023/06/09 05:40:56;;;;;;;1.60;1.15;;;23.70;64.90;;;;;;5073134;28;20374;-77
2023/06/09 05:43:29;;;;;;;2.05;1.40;;;23.40;45.80;;;;;;5055155;28;20016;-77
2023/06/09 05:45:56;;;;;;;3.20;1.00;;;23.50;45.80;;;;;;5072961;28;20028;-78
2023/06/09 05:48:22;;;;;;;1.75;1.30;;;;;;;;;;5072818;28;20032;-77
2023/06/09 05:50:48;;;;;;;2.85;1.65;;;23.50;45.30;;;;;;5072756;28;20029;-79
2023/06/09 05:53:16;;;;;;;2.65;1.40;;;23.50;45.70;;;;;;5076590;28;20028;-76
2023/06/09 05:55:44;;;;;;;4.95;1.50;;;23.50;45.80;;;;;;5072436;28;20474;-81
2023/06/09 05:58:14;;;;;;;2.25;1.48;;;23.50;45.80;;;;;;5072842;28;20031;-82
2023/06/09 06:00:41;;;;;;;2.30;1.27;;;23.50;45.80;;;;;;5072825;28;20028;-81
2023/06/09 06:03:09;;;;;;;2.05;1.02;;;23.50;46.40;;;;;;5072326;28;20135;-80
2023/06/09 06:05:35;;;;;;;2.00;1.40;;;23.50;45.90;;;;;;5072396;28;20475;-80
2023/06/09 06:08:01;;;;;;;2.47;1.38;;;23.50;64.80;;;;;;5072334;28;20025;-80
2023/06/09 06:10:27;;;;;;;2.08;1.60;;;23.40;66.20;;;;;;5072929;28;20017;-81
2023/06/09 06:12:54;;;;;;;1.52;1.42;;;23.50;45.90;;;;;;5072526;28;20088;-82
2023/06/09 06:15:21;;;;;;;1.63;1.33;;;23.20;64.80;;;;;;5072055;28;20497;-78
2023/06/09 06:17:47;;;;;;;1.45;1.20;;;23.50;45.80;;;;;;5072604;28;20035;-78
2023/06/09 06:20:13;;;;;;;1.70;1.25;;;23.70;65.30;;;;;;5074073;28;20040;-79
2023/06/09 06:22:39;;;;;;;1.92;1.20;;;23.50;45.90;;;;;;5073941;28;20021;-78
2023/06/09 06:25:06;;;;;;;2.83;1.38;;;23.40;66.10;;;;;;5073583;28;20096;-78
2023/06/09 06:27:32;;;;;;;1.60;1.30;;;23.30;64.70;;;;;;5073501;28;20021;-78
2023/06/09 06:29:58;;;;;;;1.92;1.25;;;23.40;45.90;;;;;;5071995;28;20544;-78
2023/06/09 06:32:25;;;;;;;2.70;1.38;;;23.60;65.10;;;;;;5072387;28;20360;-79
2023/06/09 06:34:51;;;;;;;1.63;1.25;;;23.60;65.40;;;;;;5072049;28;20028;-81
2023/06/09 06:37:16;;;;;;;2.78;1.23;;;23.40;65.30;;;;;;5074928;28;20475;-79
2023/06/09 06:39:42;;;;;;;2.35;1.30;;;23.40;46.10;;;;;;5072424;28;20123;-78
2023/06/09 06:42:08;;;;;;;2.33;1.38;;;23.60;65.40;;;;;;5072015;28;20574;-77
2023/06/09 06:44:34;;;;;;;2.03;1.35;;;23.40;46.10;;;;;;5072283;28;20032;-76
2023/06/09 06:47:00;;;;;;;1.55;1.23;;;23.30;65.00;;;;;;5071909;28;20364;-76
2023/06/09 06:49:26;;;;;;;2.80;1.38;;;23.00;64.90;;;;;;5071943;28;20040;-76
2023/06/09 06:51:52;;;;;;;1.23;1.13;;;23.30;65.20;;;;;;5071681;28;20051;-77
2023/06/09 06:54:18;;;;;;;3.40;1.13;;;23.40;65.20;;;;;;5072084;28;20024;-77
2023/06/09 06:56:44;;;;;;;2.72;1.48;;;23.60;66.90;;;;;;5072095;28;20116;-77
2023/06/09 06:59:10;;;;;;;1.50;1.05;;;23.20;64.80;;;;;;5072011;28;20033;-78
2023/06/09 07:01:38;;;;;;;2.33;1.20;;;23.40;45.90;;;;;;5071985;28;20031;-78
2023/06/09 07:04:18;;;;;;;3.28;1.23;;;23.40;46.30;;;;;;5069559;28;20044;-79
